sensor_id;sensor_type;location;lat;lon;timestamp;pressure;altitude;pressure_sealevel;temperature;humidity
70141;BME280;57508;43.086;0.136;2022-10-16T05:40:08;95590.97;;;25.08;37.39
70141;BME280;57508;43.086;0.136;2022-10-16T05:42:35;95586.72;;;25.14;37.42
70141;BME280;57508;43.086;0.136;2022-10-16T05:45:00;95585.56;;;25.15;37.00
70141;BME280;57508;43.086;0.136;2022-10-16T05:47:26;95589.03;;;25.05;37.22
70141;BME280;57508;43.086;0.136;2022-10-16T05:49:51;95591.28;;;24.81;37.56
70141;BME280;57508;43.086;0.136;2022-10-16T05:52:17;95585.81;;;24.48;38.02
70141;BME280;57508;43.086;0.136;2022-10-16T05:54:42;95586.78;;;24.07;38.89
70141;BME280;57508;43.086;0.136;2022-10-16T05:57:08;95589.56;;;24.21;38.32
70141;BME280;57508;43.086;0.136;2022-10-16T05:59:34;95580.00;;;24.46;38.25
70141;BME280;57508;43.086;0.136;2022-10-16T06:01:59;95586.91;;;24.32;38.44
70141;BME280;57508;43.086;0.136;2022-10-16T06:04:24;95584.81;;;23.37;40.48
70141;BME280;57508;43.086;0.136;2022-10-16T06:06:50;95584.44;;;24.09;39.19
70141;BME280;57508;43.086;0.136;2022-10-16T06:09:15;95581.97;;;23.78;40.04
70141;BME280;57508;43.086;0.136;2022-10-16T06:11:41;95586.03;;;23.50;40.38
70141;BME280;57508;43.086;0.136;2022-10-16T06:14:08;95585.72;;;24.26;37.99
70141;BME280;57508;43.086;0.136;2022-10-16T06:16:35;95590.34;;;24.26;38.17
70141;BME280;57508;43.086;0.136;2022-10-16T06:19:02;95605.81;;;24.36;37.84
70141;BME280;57508;43.086;0.136;2022-10-16T06:21:29;95601.97;;;24.37;37.72
70141;BME280;57508;43.086;0.136;2022-10-16T06:23:55;95611.69;;;24.53;37.68
70141;BME280;57508;43.086;0.136;2022-10-16T06:26:23;95608.53;;;24.43;38.05
70141;BME280;57508;43.086;0.136;2022-10-16T06:28:49;95606.41;;;24.07;37.88
70141;BME280;57508;43.086;0.136;2022-10-16T06:31:16;95612.97;;;24.03;38.41
70141;BME280;57508;43.086;0.136;2022-10-16T06:33:41;95614.41;;;23.82;38.58
70141;BME280;57508;43.086;0.136;2022-10-16T06:36:09;95613.09;;;23.61;38.60
70141;BME280;57508;43.086;0.136;2022-10-16T06:38:36;95621.47;;;23.48;38.97
70141;BME280;57508;43.086;0.136;2022-10-16T06:41:02;95613.38;;;24.12;37.71
70141;BME280;57508;43.086;0.136;2022-10-16T06:43:29;95613.72;;;25.03;36.27
70141;BME280;57508;43.086;0.136;2022-10-16T06:45:59;95624.19;;;25.19;36.22
70141;BME280;57508;43.086;0.136;2022-10-16T06:48:26;95626.78;;;24.76;37.56
70141;BME280;57508;43.086;0.136;2022-10-16T06:51:06;95626.13;;;25.22;36.12
70141;BME280;57508;43.086;0.136;2022-10-16T06:53:36;95632.28;;;25.05;36.71
70141;BME280;57508;43.086;0.136;2022-10-16T06:56:11;95633.09;;;25.45;35.63
70141;BME280;57508;43.086;0.136;2022-10-16T06:58:37;95631.16;;;25.57;35.75
70141;BME280;57508;43.086;0.136;2022-10-16T07:01:04;95633.06;;;25.56;35.99
70141;BME280;57508;43.086;0.136;2022-10-16T07:03:30;95633.06;;;25.09;35.52
70141;BME280;57508;43.086;0.136;2022-10-16T07:05:55;95626.50;;;25.46;35.68
70141;BME280;57508;43.086;0.136;2022-10-16T07:08:21;95633.84;;;25.93;35.10
70141;BME280;57508;43.086;0.136;2022-10-16T07:10:47;95634.63;;;25.54;35.22
70141;BME280;57508;43.086;0.136;2022-10-16T07:13:12;95633.13;;;25.60;35.33
70141;BME280;57508;43.086;0.136;2022-10-16T07:15:40;95637.75;;;25.78;35.63
70141;BME280;57508;43.086;0.136;2022-10-16T07:18:05;95632.91;;;27.30;33.93
70141;BME280;57508;43.086;0.136;2022-10-16T07:20:31;95634.66;;;28.00;32.28
70141;BME280;57508;43.086;0.136;2022-10-16T07:22:56;95641.31;;;28.31;31.54
70141;BME280;57508;43.086;0.136;2022-10-16T07:25:22;95647.88;;;28.68;30.66
70141;BME280;57508;43.086;0.136;2022-10-16T07:27:47;95640.28;;;29.14;29.20
70141;BME280;57508;43.086;0.136;2022-10-16T07:30:13;95654.47;;;29.53;28.39
70141;BME280;57508;43.086;0.136;2022-10-16T07:32:39;95653.31;;;29.51;28.05
70141;BME280;57508;43.086;0.136;2022-10-16T07:35:06;95659.44;;;30.07;28.42
70141;BME280;57508;43.086;0.136;2022-10-16T07:37:31;95662.47;;;30.33;26.86
70141;BME280;57508;43.086;0.136;2022-10-16T07:39:56;95661.19;;;31.15;25.99
70141;BME280;57508;43.086;0.136;2022-10-16T07:42:22;95662.88;;;31.09;26.43
70141;BME280;57508;43.086;0.136;2022-10-16T07:44:48;95659.22;;;31.52;26.81
70141;BME280;57508;43.086;0.136;2022-10-16T07:47:13;95663.66;;;32.39;25.25
70141;BME280;57508;43.086;0.136;2022-10-16T07:49:38;95662.81;;;33.37;23.94
70141;BME280;57508;43.086;0.136;2022-10-16T07:52:04;95660.94;;;33.60;24.33
70141;BME280;57508;43.086;0.136;2022-10-16T07:54:29;95662.66;;;34.15;22.63
70141;BME280;57508;43.086;0.136;2022-10-16T07:56:55;95661.41;;;34.29;22.87
70141;BME280;57508;43.086;0.136;2022-10-16T07:59:20;95662.81;;;33.50;22.65
70141;BME280;57508;43.086;0.136;2022-10-16T08:01:46;95668.25;;;32.72;23.45
70141;BME280;57508;43.086;0.136;2022-10-16T08:04:11;95663.00;;;32.64;23.13
70141;BME280;57508;43.086;0.136;2022-10-16T08:06:38;95663.56;;;33.76;23.59
70141;BME280;57508;43.086;0.136;2022-10-16T08:09:04;95664.78;;;34.33;22.53
70141;BME280;57508;43.086;0.136;2022-10-16T08:11:31;95662.47;;;34.76;21.81
70141;BME280;57508;43.086;0.136;2022-10-16T08:13:56;95653.16;;;34.51;21.85
70141;BME280;57508;43.086;0.136;2022-10-16T08:16:22;95665.81;;;34.26;22.87
70141;BME280;57508;43.086;0.136;2022-10-16T08:18:47;95667.09;;;33.99;22.62
70141;BME280;57508;43.086;0.136;2022-10-16T08:21:16;95666.69;;;34.23;22.60
70141;BME280;57508;43.086;0.136;2022-10-16T08:23:42;95661.50;;;34.47;23.47
70141;BME280;57508;43.086;0.136;2022-10-16T08:26:09;95663.19;;;34.99;24.32
70141;BME280;57508;43.086;0.136;2022-10-16T08:28:35;95674.66;;;35.07;24.36
70141;BME280;57508;43.086;0.136;2022-10-16T08:31:09;95676.03;;;35.43;23.58
70141;BME280;57508;43.086;0.136;2022-10-16T08:33:35;95676.75;;;35.34;23.55
70141;BME280;57508;43.086;0.136;2022-10-16T08:36:01;95675.16;;;35.65;23.47
70141;BME280;57508;43.086;0.136;2022-10-16T08:38:27;95669.03;;;36.83;22.28
70141;BME280;57508;43.086;0.136;2022-10-16T08:48:57;95666.22;;;39.09;20.28
70141;BME280;57508;43.086;0.136;2022-10-16T08:51:27;95657.50;;;39.31;18.41
70141;BME280;57508;43.086;0.136;2022-10-16T08:53:58;95652.34;;;39.60;19.59
70141;BME280;57508;43.086;0.136;2022-10-16T08:56:25;95650.75;;;39.53;18.30
70141;BME280;57508;43.086;0.136;2022-10-16T08:58:52;95646.13;;;38.93;19.86
70141;BME280;57508;43.086;0.136;2022-10-16T09:01:20;95646.25;;;38.38;20.32
70141;BME280;57508;43.086;0.136;2022-10-16T09:06:55;95660.53;;;37.48;20.70
70141;BME280;57508;43.086;0.136;2022-10-16T09:10:21;95653.19;;;37.21;22.30
70141;BME280;57508;43.086;0.136;2022-10-16T09:21:39;95666.00;;;36.81;23.49
70141;BME280;57508;43.086;0.136;2022-10-16T09:23:45;95655.00;;;37.15;22.74
70141;BME280;57508;43.086;0.136;2022-10-16T09:26:15;95651.00;;;37.49;23.06
70141;BME280;57508;43.086;0.136;2022-10-16T09:28:41;95651.66;;;38.48;22.13
70141;BME280;57508;43.086;0.136;2022-10-16T09:31:19;95652.47;;;39.50;20.56
70141;BME280;57508;43.086;0.136;2022-10-16T09:33:48;95657.22;;;39.50;18.47
70141;BME280;57508;43.086;0.136;2022-10-16T09:36:16;95655.47;;;39.88;19.79
70141;BME280;57508;43.086;0.136;2022-10-16T09:38:41;95655.03;;;39.96;15.45
70141;BME280;57508;43.086;0.136;2022-10-16T09:41:20;95669.16;;;39.98;17.75
70141;BME280;57508;43.086;0.136;2022-10-16T09:43:57;95668.16;;;41.07;16.33
70141;BME280;57508;43.086;0.136;2022-10-16T09:48:57;95665.72;;;42.31;16.35
70141;BME280;57508;43.086;0.136;2022-10-16T09:54:00;95654.44;;;44.28;13.83
70141;BME280;57508;43.086;0.136;2022-10-16T09:56:30;95648.56;;;43.24;14.82
70141;BME280;57508;43.086;0.136;2022-10-16T09:58:57;95649.88;;;43.83;14.23
70141;BME280;57508;43.086;0.136;2022-10-16T10:01:31;95650.03;;;44.50;13.11
70141;BME280;57508;43.086;0.136;2022-10-16T10:04:01;95652.38;;;43.98;13.26
70141;BME280;57508;43.086;0.136;2022-10-16T10:06:42;95643.31;;;43.80;13.42
70141;BME280;57508;43.086;0.136;2022-10-16T10:09:19;95643.59;;;43.82;13.03
70141;BME280;57508;43.086;0.136;2022-10-16T10:11:59;95632.31;;;44.11;11.90
70141;BME280;57508;43.086;0.136;2022-10-16T10:16:52;95626.16;;;45.66;12.00
70141;BME280;57508;43.086;0.136;2022-10-16T10:19:21;95615.59;;;45.78;11.41
70141;BME280;57508;43.086;0.136;2022-10-16T10:21:47;95613.50;;;46.69;11.01
70141;BME280;57508;43.086;0.136;2022-10-16T10:24:15;95615.06;;;47.51;10.95
70141;BME280;57508;43.086;0.136;2022-10-16T10:29:28;95616.94;;;46.10;11.55
70141;BME280;57508;43.086;0.136;2022-10-16T10:34:43;95600.22;;;46.42;11.15
70141;BME280;57508;43.086;0.136;2022-10-16T10:37:34;95585.50;;;47.02;11.39
70141;BME280;57508;43.086;0.136;2022-10-16T10:42:55;95598.94;;;47.58;9.31
70141;BME280;57508;43.086;0.136;2022-10-16T10:45:27;95591.00;;;48.39;9.60
70141;BME280;57508;43.086;0.136;2022-10-16T10:50:43;95599.91;;;47.33;10.59
70141;BME280;57508;43.086;0.136;2022-10-16T11:06:00;95595.53;;;48.42;10.50
70141;BME280;57508;43.086;0.136;2022-10-16T11:08:47;95590.25;;;48.17;11.07
70141;BME280;57508;43.086;0.136;2022-10-16T11:11:35;95591.31;;;47.31;10.01
70141;BME280;57508;43.086;0.136;2022-10-16T11:17:02;95593.34;;;47.30;10.37
70141;BME280;57508;43.086;0.136;2022-10-16T11:20:05;95583.78;;;46.85;11.11
70141;BME280;57508;43.086;0.136;2022-10-16T11:22:56;95583.88;;;46.79;9.65
70141;BME280;57508;43.086;0.136;2022-10-16T11:25:24;95573.03;;;48.35;10.99
70141;BME280;57508;43.086;0.136;2022-10-16T11:30:26;95584.94;;;48.99;9.21
70141;BME280;57508;43.086;0.136;2022-10-16T11:35:57;95590.78;;;48.80;10.38
70141;BME280;57508;43.086;0.136;2022-10-16T11:41:51;95577.16;;;49.13;8.80
70141;BME280;57508;43.086;0.136;2022-10-16T11:47:30;95583.56;;;48.20;9.61
70141;BME280;57508;43.086;0.136;2022-10-16T11:50:04;95590.69;;;49.60;10.45
70141;BME280;57508;43.086;0.136;2022-10-16T11:55:34;95582.38;;;51.08;8.69
70141;BME280;57508;43.086;0.136;2022-10-16T11:58:07;95577.19;;;50.50;9.01
70141;BME280;57508;43.086;0.136;2022-10-16T12:00:47;95576.72;;;49.91;9.00
70141;BME280;57508;43.086;0.136;2022-10-16T12:03:31;95573.25;;;50.37;9.91
70141;BME280;57508;43.086;0.136;2022-10-16T12:08:51;95574.56;;;51.47;7.75
70141;BME280;57508;43.086;0.136;2022-10-16T12:16:29;95577.53;;;51.57;8.16
70141;BME280;57508;43.086;0.136;2022-10-16T12:19:15;95571.19;;;52.41;8.33
70141;BME280;57508;43.086;0.136;2022-10-16T12:21:42;95577.88;;;51.62;7.55
70141;BME280;57508;43.086;0.136;2022-10-16T12:26:46;95571.88;;;51.99;7.57
70141;BME280;57508;43.086;0.136;2022-10-16T12:31:46;95587.19;;;51.80;8.55
70141;BME280;57508;43.086;0.136;2022-10-16T12:34:26;95585.44;;;49.71;9.38
70141;BME280;57508;43.086;0.136;2022-10-16T12:36:53;95591.34;;;51.71;8.49
70141;BME280;57508;43.086;0.136;2022-10-16T12:39:24;95585.75;;;52.30;7.89
70141;BME280;57508;43.086;0.136;2022-10-16T12:42:20;95592.72;;;51.95;7.65
70141;BME280;57508;43.086;0.136;2022-10-16T12:44:46;95580.31;;;51.99;7.86
70141;BME280;57508;43.086;0.136;2022-10-16T12:47:46;95587.47;;;52.51;7.68
70141;BME280;57508;43.086;0.136;2022-10-16T12:50:33;95583.22;;;52.16;7.93
70141;BME280;57508;43.086;0.136;2022-10-16T12:53:00;95593.13;;;52.25;7.91
70141;BME280;57508;43.086;0.136;2022-10-16T12:55:34;95594.06;;;51.94;7.59
70141;BME280;57508;43.086;0.136;2022-10-16T12:58:28;95588.84;;;52.16;7.83
70141;BME280;57508;43.086;0.136;2022-10-16T13:06:54;95596.06;;;52.35;9.02
70141;BME280;57508;43.086;0.136;2022-10-16T13:12:11;95586.47;;;52.05;9.54
70141;BME280;57508;43.086;0.136;2022-10-16T13:17:49;95593.59;;;48.16;11.99
70141;BME280;57508;43.086;0.136;2022-10-16T13:20:46;95597.50;;;49.06;11.19
70141;BME280;57508;43.086;0.136;2022-10-16T13:26:30;95612.25;;;47.38;11.85
70141;BME280;57508;43.086;0.136;2022-10-16T13:29:00;95598.53;;;45.62;13.78
70141;BME280;57508;43.086;0.136;2022-10-16T13:31:26;95598.41;;;45.74;14.19
70141;BME280;57508;43.086;0.136;2022-10-16T13:33:55;95604.81;;;46.07;13.91
70141;BME280;57508;43.086;0.136;2022-10-16T13:36:29;95604.56;;;46.71;13.31
70141;BME280;57508;43.086;0.136;2022-10-16T13:39:21;95602.84;;;47.89;12.81
70141;BME280;57508;43.086;0.136;2022-10-16T13:44:39;95597.69;;;48.36;12.49
70141;BME280;57508;43.086;0.136;2022-10-16T13:47:32;95606.22;;;48.94;11.50
70141;BME280;57508;43.086;0.136;2022-10-16T13:50:04;95615.38;;;48.52;11.96
70141;BME280;57508;43.086;0.136;2022-10-16T13:52:30;95608.41;;;49.17;11.66
70141;BME280;57508;43.086;0.136;2022-10-16T13:54:56;95622.06;;;49.50;11.96
70141;BME280;57508;43.086;0.136;2022-10-16T13:57:23;95618.16;;;50.21;10.99
70141;BME280;57508;43.086;0.136;2022-10-16T13:59:49;95621.88;;;50.08;10.51
70141;BME280;57508;43.086;0.136;2022-10-16T14:02:35;95605.50;;;48.73;12.41
70141;BME280;57508;43.086;0.136;2022-10-16T14:05:04;95604.06;;;48.37;12.62
70141;BME280;57508;43.086;0.136;2022-10-16T14:07:34;95610.91;;;48.28;12.38
70141;BME280;57508;43.086;0.136;2022-10-16T14:10:03;95608.50;;;47.62;13.03
70141;BME280;57508;43.086;0.136;2022-10-16T14:12:29;95609.75;;;48.10;12.80
70141;BME280;57508;43.086;0.136;2022-10-16T14:14:57;95614.50;;;47.66;12.50
70141;BME280;57508;43.086;0.136;2022-10-16T14:17:26;95612.75;;;49.26;11.70
70141;BME280;57508;43.086;0.136;2022-10-16T14:19:54;95615.56;;;48.68;12.41
70141;BME280;57508;43.086;0.136;2022-10-16T14:24:57;95611.19;;;48.03;12.20
70141;BME280;57508;43.086;0.136;2022-10-16T14:27:33;95605.56;;;49.10;11.41
70141;BME280;57508;43.086;0.136;2022-10-16T14:30:20;95610.97;;;48.36;11.49
70141;BME280;57508;43.086;0.136;2022-10-16T14:33:00;95619.97;;;47.86;12.37
70141;BME280;57508;43.086;0.136;2022-10-16T14:35:31;95615.00;;;48.27;12.07
70141;BME280;57508;43.086;0.136;2022-10-16T14:37:58;95609.16;;;48.25;12.06
70141;BME280;57508;43.086;0.136;2022-10-16T14:40:27;95597.69;;;48.57;12.41
70141;BME280;57508;43.086;0.136;2022-10-16T14:42:53;95595.19;;;48.46;11.81
70141;BME280;57508;43.086;0.136;2022-10-16T14:45:21;95594.53;;;47.84;12.21
70141;BME280;57508;43.086;0.136;2022-10-16T14:47:57;95598.03;;;47.63;12.02
70141;BME280;57508;43.086;0.136;2022-10-16T14:50:24;95601.09;;;48.00;12.63
70141;BME280;57508;43.086;0.136;2022-10-16T14:52:49;95602.69;;;47.33;12.48
70141;BME280;57508;43.086;0.136;2022-10-16T14:55:15;95590.91;;;46.67;13.64
70141;BME280;57508;43.086;0.136;2022-10-16T14:57:43;95588.72;;;47.95;12.52
70141;BME280;57508;43.086;0.136;2022-10-16T15:00:18;95589.56;;;47.01;12.46
70141;BME280;57508;43.086;0.136;2022-10-16T15:02:45;95593.00;;;46.34;13.29
70141;BME280;57508;43.086;0.136;2022-10-16T15:07:48;95585.09;;;46.18;12.60
70141;BME280;57508;43.086;0.136;2022-10-16T15:10:15;95589.75;;;45.52;13.38
70141;BME280;57508;43.086;0.136;2022-10-16T15:12:42;95591.06;;;44.09;15.06
70141;BME280;57508;43.086;0.136;2022-10-16T15:17:51;95586.25;;;43.62;14.70
70141;BME280;57508;43.086;0.136;2022-10-16T15:20:25;95588.50;;;42.81;16.38
70141;BME280;57508;43.086;0.136;2022-10-16T15:22:50;95595.31;;;42.23;16.54
70141;BME280;57508;43.086;0.136;2022-10-16T15:27:54;95597.38;;;41.06;18.86
70141;BME280;57508;43.086;0.136;2022-10-16T15:30:20;95588.66;;;40.81;18.29
70141;BME280;57508;43.086;0.136;2022-10-16T15:32:45;95587.06;;;40.42;19.67
70141;BME280;57508;43.086;0.136;2022-10-16T15:35:10;95594.03;;;39.79;20.65
70141;BME280;57508;43.086;0.136;2022-10-16T15:37:36;95594.19;;;39.12;20.50
70141;BME280;57508;43.086;0.136;2022-10-16T15:40:01;95597.59;;;38.71;20.91
70141;BME280;57508;43.086;0.136;2022-10-16T15:42:27;95591.31;;;38.41;22.52
70141;BME280;57508;43.086;0.136;2022-10-16T15:44:52;95593.91;;;38.29;21.94
70141;BME280;57508;43.086;0.136;2022-10-16T15:47:18;95599.72;;;37.92;22.37
70141;BME280;57508;43.086;0.136;2022-10-16T15:49:43;95597.53;;;37.81;22.68
70141;BME280;57508;43.086;0.136;2022-10-16T15:52:08;95609.00;;;37.40;23.82
70141;BME280;57508;43.086;0.136;2022-10-16T15:54:34;95604.75;;;37.29;23.85
70141;BME280;57508;43.086;0.136;2022-10-16T15:56:59;95601.56;;;36.88;24.47
70141;BME280;57508;43.086;0.136;2022-10-16T15:59:25;95610.03;;;36.65;24.38
70141;BME280;57508;43.086;0.136;2022-10-16T16:01:50;95610.09;;;36.46;25.06
70141;BME280;57508;43.086;0.136;2022-10-16T16:04:15;95616.41;;;36.28;25.13
70141;BME280;57508;43.086;0.136;2022-10-16T16:06:42;95608.63;;;35.89;25.77
70141;BME280;57508;43.086;0.136;2022-10-16T16:09:10;95616.84;;;35.61;25.97
70141;BME280;57508;43.086;0.136;2022-10-16T16:11:36;95619.66;;;35.20;27.27
70141;BME280;57508;43.086;0.136;2022-10-16T16:14:07;95621.81;;;35.25;26.72
70141;BME280;57508;43.086;0.136;2022-10-16T16:16:33;95613.94;;;35.05;27.91
70141;BME280;57508;43.086;0.136;2022-10-16T16:19:06;95621.16;;;35.12;28.51
70141;BME280;57508;43.086;0.136;2022-10-16T16:21:33;95621.16;;;34.26;30.05
70141;BME280;57508;43.086;0.136;2022-10-16T16:23:59;95635.56;;;34.39;28.99
70141;BME280;57508;43.086;0.136;2022-10-16T16:26:29;95635.13;;;34.41;29.28
70141;BME280;57508;43.086;0.136;2022-10-16T16:28:59;95635.06;;;34.31;28.59
70141;BME280;57508;43.086;0.136;2022-10-16T16:31:26;95634.53;;;34.01;30.34
70141;BME280;57508;43.086;0.136;2022-10-16T16:33:53;95638.00;;;34.02;29.71
70141;BME280;57508;43.086;0.136;2022-10-16T16:36:18;95637.53;;;33.94;30.11
70141;BME280;57508;43.086;0.136;2022-10-16T16:38:45;95639.88;;;33.56;30.76
70141;BME280;57508;43.086;0.136;2022-10-16T16:41:29;95636.41;;;33.43;30.95
70141;BME280;57508;43.086;0.136;2022-10-16T16:44:05;95630.28;;;33.39;30.67
70141;BME280;57508;43.086;0.136;2022-10-16T16:46:32;95634.59;;;33.14;31.11
70141;BME280;57508;43.086;0.136;2022-10-16T16:48:59;95636.09;;;32.76;32.52
70141;BME280;57508;43.086;0.136;2022-10-16T16:51:25;95641.34;;;32.70;31.79
70141;BME280;57508;43.086;0.136;2022-10-16T16:53:53;95639.63;;;32.47;31.78
70141;BME280;57508;43.086;0.136;2022-10-16T16:56:21;95640.13;;;32.28;31.73
70141;BME280;57508;43.086;0.136;2022-10-16T16:58:49;95638.41;;;32.05;32.27
70141;BME280;57508;43.086;0.136;2022-10-16T17:01:15;95640.47;;;32.01;32.41
70141;BME280;57508;43.086;0.136;2022-10-16T17:03:43;95644.53;;;32.09;32.05
70141;BME280;57508;43.086;0.136;2022-10-16T17:06:13;95638.34;;;31.75;31.65
70141;BME280;57508;43.086;0.136;2022-10-16T17:08:39;95641.75;;;31.79;33.19
70141;BME280;57508;43.086;0.136;2022-10-16T17:11:06;95647.94;;;31.67;33.60
70141;BME280;57508;43.086;0.136;2022-10-16T17:13:33;95649.09;;;31.16;34.31
70141;BME280;57508;43.086;0.136;2022-10-16T17:16:01;95660.22;;;30.68;34.24
70141;BME280;57508;43.086;0.136;2022-10-16T17:18:26;95660.59;;;30.29;35.47
70141;BME280;57508;43.086;0.136;2022-10-16T17:20:52;95659.81;;;30.49;34.66
70141;BME280;57508;43.086;0.136;2022-10-16T17:23:19;95663.38;;;30.46;34.67
70141;BME280;57508;43.086;0.136;2022-10-16T17:25:45;95666.16;;;30.22;35.16
70141;BME280;57508;43.086;0.136;2022-10-16T17:28:12;95667.78;;;30.40;34.79
70141;BME280;57508;43.086;0.136;2022-10-16T17:30:41;95676.47;;;30.11;34.22
70141;BME280;57508;43.086;0.136;2022-10-16T17:33:07;95679.72;;;29.54;35.62
70141;BME280;57508;43.086;0.136;2022-10-16T17:35:43;95682.88;;;29.76;34.57
70141;BME280;57508;43.086;0.136;2022-10-16T17:38:10;95680.88;;;29.80;34.29
70141;BME280;57508;43.086;0.136;2022-10-16T17:40:36;95680.81;;;29.84;34.66
70141;BME280;57508;43.086;0.136;2022-10-16T17:43:02;95688.38;;;29.97;34.12
70141;BME280;57508;43.086;0.136;2022-10-16T17:45:28;95701.28;;;29.69;34.32
70141;BME280;57508;43.086;0.136;2022-10-16T17:47:54;95707.09;;;29.15;35.54
70141;BME280;57508;43.086;0.136;2022-10-16T17:50:19;95699.69;;;29.20;36.00
70141;BME280;57508;43.086;0.136;2022-10-16T17:52:44;95712.06;;;29.48;34.69
70141;BME280;57508;43.086;0.136;2022-10-16T17:55:10;95721.28;;;29.31;35.16
70141;BME280;57508;43.086;0.136;2022-10-16T17:57:36;95729.81;;;29.01;35.38
70141;BME280;57508;43.086;0.136;2022-10-16T18:00:03;95739.63;;;28.95;35.45
70141;BME280;57508;43.086;0.136;2022-10-16T18:02:29;95748.06;;;29.04;34.45
70141;BME280;57508;43.086;0.136;2022-10-16T18:04:54;95737.34;;;28.86;35.09
70141;BME280;57508;43.086;0.136;2022-10-16T18:07:20;95737.06;;;29.43;34.79
70141;BME280;57508;43.086;0.136;2022-10-16T18:09:46;95752.78;;;29.00;34.85
70141;BME280;57508;43.086;0.136;2022-10-16T18:12:11;95754.59;;;29.11;34.60
70141;BME280;57508;43.086;0.136;2022-10-16T18:14:37;95751.56;;;28.28;35.81
70141;BME280;57508;43.086;0.136;2022-10-16T18:17:03;95749.72;;;28.14;36.23
70141;BME280;57508;43.086;0.136;2022-10-16T18:19:28;95752.88;;;28.55;34.56
70141;BME280;57508;43.086;0.136;2022-10-16T18:21:54;95755.09;;;28.63;34.54
70141;BME280;57508;43.086;0.136;2022-10-16T18:24:21;95758.91;;;28.27;34.83
70141;BME280;57508;43.086;0.136;2022-10-16T18:26:50;95762.28;;;28.00;35.45
70141;BME280;57508;43.086;0.136;2022-10-16T18:29:16;95760.09;;;28.26;35.09
70141;BME280;57508;43.086;0.136;2022-10-16T18:31:42;95755.22;;;28.07;35.56
70141;BME280;57508;43.086;0.136;2022-10-16T18:34:08;95753.06;;;27.87;35.71
70141;BME280;57508;43.086;0.136;2022-10-16T18:36:34;95753.41;;;27.93;34.39
70141;BME280;57508;43.086;0.136;2022-10-16T18:39:02;95759.91;;;28.06;33.56
70141;BME280;57508;43.086;0.136;2022-10-16T18:41:29;95754.53;;;27.95;34.02
70141;BME280;57508;43.086;0.136;2022-10-16T18:43:56;95769.28;;;27.34;35.00
70141;BME280;57508;43.086;0.136;2022-10-16T18:46:23;95770.28;;;27.62;34.73
70141;BME280;57508;43.086;0.136;2022-10-16T18:48:49;95765.91;;;27.83;34.24
70141;BME280;57508;43.086;0.136;2022-10-16T18:51:23;95764.34;;;27.82;33.51
70141;BME280;57508;43.086;0.136;2022-10-16T18:53:54;95766.63;;;27.23;34.59
70141;BME280;57508;43.086;0.136;2022-10-16T18:56:22;95759.53;;;27.44;33.87
70141;BME280;57508;43.086;0.136;2022-10-16T18:58:48;95768.81;;;27.50;32.87
70141;BME280;57508;43.086;0.136;2022-10-16T19:01:19;95771.94;;;27.41;32.95
70141;BME280;57508;43.086;0.136;2022-10-16T19:03:45;95764.78;;;27.76;32.19
70141;BME280;57508;43.086;0.136;2022-10-16T19:06:12;95766.00;;;27.68;31.90
70141;BME280;57508;43.086;0.136;2022-10-16T19:08:39;95755.72;;;27.34;32.72
70141;BME280;57508;43.086;0.136;2022-10-16T19:11:12;95761.09;;;26.30;34.82
70141;BME280;57508;43.086;0.136;2022-10-16T19:13:37;95752.13;;;26.51;34.02
70141;BME280;57508;43.086;0.136;2022-10-16T19:16:07;95756.66;;;26.98;33.35
70141;BME280;57508;43.086;0.136;2022-10-16T19:18:33;95755.13;;;26.86;32.72
70141;BME280;57508;43.086;0.136;2022-10-16T19:21:06;95748.34;;;27.34;32.78
70141;BME280;57508;43.086;0.136;2022-10-16T19:23:33;95753.31;;;27.47;32.51
70141;BME280;57508;43.086;0.136;2022-10-16T19:26:06;95752.94;;;26.26;34.33
70141;BME280;57508;43.086;0.136;2022-10-16T19:28:32;95750.63;;;26.17;34.33
70141;BME280;57508;43.086;0.136;2022-10-16T19:31:06;95752.00;;;26.95;32.56
70141;BME280;57508;43.086;0.136;2022-10-16T19:33:32;95755.91;;;26.97;32.53
70141;BME280;57508;43.086;0.136;2022-10-16T19:36:13;95761.41;;;27.54;32.02
70141;BME280;57508;43.086;0.136;2022-10-16T19:38:40;95760.84;;;27.21;32.83
70141;BME280;57508;43.086;0.136;2022-10-16T19:41:12;95767.19;;;26.70;33.60
70141;BME280;57508;43.086;0.136;2022-10-16T19:43:38;95761.31;;;26.86;33.47
70141;BME280;57508;43.086;0.136;2022-10-16T19:46:09;95765.94;;;27.08;32.43
70141;BME280;57508;43.086;0.136;2022-10-16T19:48:35;95769.97;;;26.12;33.72
70141;BME280;57508;43.086;0.136;2022-10-16T19:51:02;95769.16;;;26.55;32.97
70141;BME280;57508;43.086;0.136;2022-10-16T19:53:28;95771.28;;;27.22;32.65
70141;BME280;57508;43.086;0.136;2022-10-16T19:55:54;95768.19;;;27.20;32.87
70141;BME280;57508;43.086;0.136;2022-10-16T19:58:20;95770.31;;;26.54;33.85
70141;BME280;57508;43.086;0.136;2022-10-16T20:00:45;95762.97;;;26.51;33.36
70141;BME280;57508;43.086;0.136;2022-10-16T20:03:11;95762.22;;;26.36;33.99
70141;BME280;57508;43.086;0.136;2022-10-16T20:05:36;95761.06;;;26.08;33.90
70141;BME280;57508;43.086;0.136;2022-10-16T20:08:02;95750.22;;;26.44;32.71
70141;BME280;57508;43.086;0.136;2022-10-16T20:10:27;95759.81;;;26.74;33.11
70141;BME280;57508;43.086;0.136;2022-10-16T20:12:53;95772.97;;;26.76;33.17
70141;BME280;57508;43.086;0.136;2022-10-16T20:15:18;95771.47;;;26.57;32.79
70141;BME280;57508;43.086;0.136;2022-10-16T20:17:43;95766.81;;;26.61;33.38
70141;BME280;57508;43.086;0.136;2022-10-16T20:20:09;95754.44;;;26.60;33.11
70141;BME280;57508;43.086;0.136;2022-10-16T20:22:34;95760.28;;;26.40;33.07
70141;BME280;57508;43.086;0.136;2022-10-16T20:25:00;95764.19;;;26.35;33.66
70141;BME280;57508;43.086;0.136;2022-10-16T20:27:26;95768.41;;;26.11;34.41
70141;BME280;57508;43.086;0.136;2022-10-16T20:29:53;95769.19;;;25.86;34.65
70141;BME280;57508;43.086;0.136;2022-10-16T20:32:20;95773.72;;;25.31;35.32
70141;BME280;57508;43.086;0.136;2022-10-16T20:34:46;95766.78;;;25.41;34.97
70141;BME280;57508;43.086;0.136;2022-10-16T20:37:14;95763.56;;;24.98;35.39
70141;BME280;57508;43.086;0.136;2022-10-16T20:39:40;95768.03;;;25.94;33.70